Time;durP1;ratioP1;P1;durP2;ratioP2;P2;SDS_P1;SDS_P2;PMS_P1;PMS_P2;Temp;Humidity;BMP_temperature;BMP_pressure;BME280_temperature;BME280_humidity;BME280_pressure;Samples;Min_cycle;Max_cycle;Signal;HPM_P1;HPM_P2
2023/12/13 00:01:01;;;;;;;0.45;0.45;;;;;;;;;;5048746;28;20045;-59
2023/12/13 00:03:29;;;;;;;0.47;0.40;;;;;;;;;;5047516;28;20478;-58
2023/12/13 00:05:58;;;;;;;0.30;0.30;;;;;;;;;;5043866;28;20045;-61
2023/12/13 00:08:26;;;;;;;0.35;0.35;;;;;;;;;;5046604;28;20065;-63
2023/12/13 00:10:58;;;;;;;0.88;0.50;;;;;;;;;;5047583;28;20444;-60
2023/12/13 00:13:27;;;;;;;1.85;0.50;;;;;;;;;;5042873;28;20052;-58
2023/12/13 00:15:57;;;;;;;0.30;0.30;;;;;;;;;;5046376;28;20068;-59
2023/12/13 00:18:25;;;;;;;0.30;0.30;;;;;;;;;;5046566;28;20053;-62
2023/12/13 00:20:54;;;;;;;0.95;0.38;;;;;;;;;;5048195;28;20044;-63
2023/12/13 00:23:22;;;;;;;0.40;0.40;;;;;;;;;;5045394;28;20051;-60
2023/12/13 00:25:51;;;;;;;0.40;0.40;;;;;;;;;;5043758;28;20275;-58
2023/12/13 00:28:19;;;;;;;0.75;0.40;;;;;;;;;;5045419;28;20048;-60
2023/12/13 00:30:48;;;;;;;0.40;0.40;;;;;;;;;;5048576;28;20125;-60
2023/12/13 00:33:18;;;;;;;0.43;0.40;;;;;;;;;;5047381;28;20049;-59
2023/12/13 00:35:46;;;;;;;1.27;0.70;;;;;;;;;;5047313;28;20056;-60
2023/12/13 00:38:15;;;;;;;0.45;0.45;;;;;;;;;;5047391;28;20437;-58
2023/12/13 00:40:43;;;;;;;0.40;0.40;;;;;;;;;;5045604;28;20053;-59
2023/12/13 00:43:11;;;;;;;0.30;0.30;;;;;;;;;;5046698;28;20531;-59
2023/12/13 00:45:40;;;;;;;0.28;0.28;;;;;;;;;;5045524;28;20509;-59
2023/12/13 00:48:09;;;;;;;1.13;0.60;;;;;;;;;;5046957;28;20048;-60
2023/12/13 00:50:39;;;;;;;0.85;0.40;;;;;;;;;;5046517;28;20049;-61
2023/12/13 00:53:07;;;;;;;1.10;0.40;;;;;;;;;;5046628;28;20045;-59
2023/12/13 00:55:35;;;;;;;0.55;0.40;;;;;;;;;;5045879;28;20120;-60
2023/12/13 00:58:04;;;;;;;0.40;0.40;;;;;;;;;;5041886;28;21049;-62
2023/12/13 01:00:32;;;;;;;0.30;0.30;;;;;;;;;;5043869;28;20080;-61
2023/12/13 01:03:00;;;;;;;0.38;0.38;;;;;;;;;;5046682;28;20419;-59
2023/12/13 01:05:29;;;;;;;0.47;0.40;;;;;;;;;;5046658;28;20095;-63
2023/12/13 01:07:59;;;;;;;0.40;0.40;;;;;;;;;;5043794;28;20044;-60
2023/12/13 01:10:27;;;;;;;0.40;0.40;;;;;;;;;;5046604;28;20040;-62
2023/12/13 01:12:55;;;;;;;0.55;0.30;;;;;;;;;;5042872;28;20492;-63
2023/12/13 01:15:24;;;;;;;0.38;0.38;;;;;;;;;;5043247;28;20099;-59
2023/12/13 01:17:52;;;;;;;0.40;0.40;;;;;;;;;;5044057;28;20134;-59
2023/12/13 01:20:21;;;;;;;0.32;0.32;;;;;;;;;;5046800;28;20049;-60
2023/12/13 01:22:49;;;;;;;0.50;0.47;;;;;;;;;;5047340;28;20609;-59
2023/12/13 01:25:19;;;;;;;0.38;0.38;;;;;;;;;;5046185;28;20055;-59
2023/12/13 01:27:47;;;;;;;0.30;0.30;;;;;;;;;;5046267;28;20505;-59
2023/12/13 01:30:16;;;;;;;0.40;0.40;;;;;;;;;;5045792;28;20107;-58
2023/12/13 01:32:44;;;;;;;0.28;0.28;;;;;;;;;;5045244;28;20080;-59
2023/12/13 01:35:13;;;;;;;0.30;0.30;;;;;;;;;;5047186;28;20057;-59
2023/12/13 01:37:41;;;;;;;0.50;0.50;;;;;;;;;;5046356;28;20605;-60
2023/12/13 01:40:10;;;;;;;0.30;0.30;;;;;;;;;;5045796;28;20041;-59
2023/12/13 01:42:40;;;;;;;0.30;0.30;;;;;;;;;;5044578;28;20037;-58
2023/12/13 01:45:09;;;;;;;0.30;0.30;;;;;;;;;;5046828;28;20510;-59
2023/12/13 01:47:37;;;;;;;0.30;0.30;;;;;;;;;;5042793;28;20057;-59
2023/12/13 01:50:07;;;;;;;0.30;0.30;;;;;;;;;;5046235;28;20049;-62
2023/12/13 01:52:36;;;;;;;0.30;0.30;;;;;;;;;;5046120;28;20116;-61
2023/12/13 01:55:06;;;;;;;0.40;0.40;;;;;;;;;;5045327;28;20077;-60
2023/12/13 01:57:35;;;;;;;0.40;0.40;;;;;;;;;;5045134;28;20045;-59
2023/12/13 02:00:05;;;;;;;0.30;0.30;;;;;;;;;;5044142;28;20049;-59
2023/12/13 02:02:33;;;;;;;0.30;0.30;;;;;;;;;;5047693;28;20099;-60
2023/12/13 02:05:03;;;;;;;0.38;0.38;;;;;;;;;;5046798;28;20044;-58
2023/12/13 02:07:31;;;;;;;0.68;0.50;;;;;;;;;;5047845;28;20048;-61
2023/12/13 02:10:00;;;;;;;0.30;0.30;;;;;;;;;;5048038;28;20057;-59
2023/12/13 02:12:29;;;;;;;0.35;0.30;;;;;;;;;;5044827;28;20045;-64
2023/12/13 02:14:57;;;;;;;0.30;0.30;;;;;;;;;;5049570;28;20398;-60
2023/12/13 02:17:27;;;;;;;1.65;0.40;;;;;;;;;;5049798;28;20049;-59
2023/12/13 02:19:55;;;;;;;0.68;0.45;;;;;;;;;;5048829;28;20057;-58
2023/12/13 02:22:25;;;;;;;0.30;0.30;;;;;;;;;;5047029;28;20053;-60
2023/12/13 02:24:54;;;;;;;0.52;0.50;;;;;;;;;;5050143;28;20063;-59
2023/12/13 02:27:26;;;;;;;0.45;0.45;;;;;;;;;;5042715;28;20081;-62
2023/12/13 02:29:54;;;;;;;0.40;0.40;;;;;;;;;;5048429;28;20134;-59
2023/12/13 02:32:22;;;;;;;0.38;0.38;;;;;;;;;;5049180;28;20505;-60
2023/12/13 02:34:51;;;;;;;0.40;0.40;;;;;;;;;;5048178;28;20099;-59
2023/12/13 02:37:19;;;;;;;0.73;0.40;;;;;;;;;;5047358;28;20510;-60
2023/12/13 02:39:49;;;;;;;0.30;0.30;;;;;;;;;;5048629;28;20157;-63
2023/12/13 02:42:17;;;;;;;0.40;0.40;;;;;;;;;;5044311;28;20523;-59
2023/12/13 02:44:45;;;;;;;0.30;0.30;;;;;;;;;;5046475;28;20052;-59
2023/12/13 02:47:13;;;;;;;0.30;0.30;;;;;;;;;;5045005;28;20111;-60
2023/12/13 02:49:42;;;;;;;0.35;0.35;;;;;;;;;;5048972;28;20053;-59
2023/12/13 02:52:10;;;;;;;0.40;0.40;;;;;;;;;;5046365;28;20569;-60
2023/12/13 02:54:38;;;;;;;0.30;0.30;;;;;;;;;;5048003;28;20079;-61
2023/12/13 02:57:08;;;;;;;0.98;0.35;;;;;;;;;;5046887;28;20122;-61
2023/12/13 02:59:36;;;;;;;0.73;0.38;;;;;;;;;;5046729;28;20141;-59
2023/12/13 03:02:05;;;;;;;2.28;0.40;;;;;;;;;;5046717;28;20136;-58
2023/12/13 03:04:33;;;;;;;0.40;0.40;;;;;;;;;;5047891;28;20496;-59
2023/12/13 03:07:02;;;;;;;0.30;0.30;;;;;;;;;;5046755;28;20168;-59
2023/12/13 03:09:30;;;;;;;0.30;0.30;;;;;;;;;;5050150;28;20049;-59
2023/12/13 03:11:58;;;;;;;0.30;0.30;;;;;;;;;;5045070;28;20148;-60
2023/12/13 03:14:28;;;;;;;0.40;0.40;;;;;;;;;;5042914;28;20040;-61
2023/12/13 03:16:56;;;;;;;0.43;0.43;;;;;;;;;;5045816;28;20049;-60
2023/12/13 03:19:25;;;;;;;0.32;0.30;;;;;;;;;;5047285;28;20098;-61
2023/12/13 03:21:53;;;;;;;0.40;0.40;;;;;;;;;;5043374;28;20044;-62
2023/12/13 03:24:22;;;;;;;0.30;0.30;;;;;;;;;;5047407;28;20087;-60
2023/12/13 03:26:50;;;;;;;0.30;0.30;;;;;;;;;;5044472;28;20045;-59
2023/12/13 03:29:18;;;;;;;0.40;0.40;;;;;;;;;;5044119;28;20187;-61
2023/12/13 03:31:48;;;;;;;3.47;0.65;;;;;;;;;;5045646;28;20045;-63
2023/12/13 03:34:17;;;;;;;0.80;0.35;;;;;;;;;;5045042;28;20045;-59
2023/12/13 03:36:45;;;;;;;0.40;0.40;;;;;;;;;;5047825;28;20037;-59
2023/12/13 03:39:13;;;;;;;0.50;0.40;;;;;;;;;;5044727;28;20178;-60
2023/12/13 03:41:42;;;;;;;0.40;0.40;;;;;;;;;;5043907;28;20449;-62
2023/12/13 03:44:10;;;;;;;0.40;0.40;;;;;;;;;;5045044;28;20114;-61
2023/12/13 03:46:39;;;;;;;0.55;0.50;;;;;;;;;;5042721;28;20502;-59
2023/12/13 03:49:10;;;;;;;0.40;0.40;;;;;;;;;;5048942;28;20045;-60
2023/12/13 03:51:43;;;;;;;0.98;0.40;;;;;;;;;;5047436;28;20456;-59
2023/12/13 03:54:11;;;;;;;0.30;0.30;;;;;;;;;;5042757;28;20058;-62
2023/12/13 03:56:40;;;;;;;0.30;0.30;;;;;;;;;;5046098;28;20134;-60
2023/12/13 03:59:08;;;;;;;0.50;0.50;;;;;;;;;;5047593;28;20102;-59
2023/12/13 04:01:37;;;;;;;0.65;0.50;;;;;;;;;;5047958;28;20049;-59
2023/12/13 04:04:05;;;;;;;0.63;0.40;;;;;;;;;;5047179;28;20041;-59
2023/12/13 04:06:35;;;;;;;0.30;0.30;;;;;;;;;;5047449;28;20518;-62
2023/12/13 04:09:04;;;;;;;1.27;0.63;;;;;;;;;;5046234;28;20080;-62
2023/12/13 04:11:32;;;;;;;0.77;0.45;;;;;;;;;;5045171;28;20052;-60
2023/12/13 04:14:00;;;;;;;2.13;0.40;;;;;;;;;;5044266;28;20523;-61
2023/12/13 04:16:29;;;;;;;0.30;0.30;;;;;;;;;;5047791;28;20107;-60
2023/12/13 04:18:57;;;;;;;2.95;0.60;;;;;;;;;;5045786;28;20049;-59
2023/12/13 04:21:26;;;;;;;0.63;0.63;;;;;;;;;;5043268;28;20052;-61
2023/12/13 04:23:55;;;;;;;0.40;0.40;;;;;;;;;;5045951;28;20102;-59
2023/12/13 04:26:24;;;;;;;0.30;0.30;;;;;;;;;;5043325;28;20065;-59
2023/12/13 04:28:52;;;;;;;1.77;0.43;;;;;;;;;;5048430;28;20053;-59
2023/12/13 04:31:20;;;;;;;1.80;0.40;;;;;;;;;;5046027;28;20426;-60
2023/12/13 04:33:49;;;;;;;0.50;0.50;;;;;;;;;;5045121;28;20056;-62
2023/12/13 04:36:17;;;;;;;1.52;0.60;;;;;;;;;;5047025;28;20509;-60
2023/12/13 04:38:46;;;;;;;0.57;0.40;;;;;;;;;;5047195;28;20059;-59
2023/12/13 04:41:15;;;;;;;0.40;0.40;;;;;;;;;;5045053;28;20122;-59
2023/12/13 04:43:44;;;;;;;0.32;0.32;;;;;;;;;;5046575;28;20141;-60
2023/12/13 04:46:12;;;;;;;0.98;0.60;;;;;;;;;;5043142;28;20120;-60
2023/12/13 04:48:41;;;;;;;1.48;0.40;;;;;;;;;;5046847;28;20690;-59
2023/12/13 04:51:09;;;;;;;0.47;0.47;;;;;;;;;;5047046;28;20052;-59
2023/12/13 04:53:37;;;;;;;0.40;0.40;;;;;;;;;;5047416;28;20472;-60
2023/12/13 04:56:06;;;;;;;0.85;0.57;;;;;;;;;;5044115;28;20083;-60
2023/12/13 04:58:35;;;;;;;1.40;0.50;;;;;;;;;;5045849;28;20813;-61
2023/12/13 05:01:04;;;;;;;0.43;0.40;;;;;;;;;;5039040;28;20380;-61
2023/12/13 05:03:33;;;;;;;1.17;0.70;;;;;;;;;;5044762;28;20041;-60
2023/12/13 05:06:01;;;;;;;2.08;0.60;;;;;;;;;;5046508;28;20040;-59
2023/12/13 05:08:30;;;;;;;1.25;0.50;;;;;;;;;;5043679;28;20088;-61
2023/12/13 05:10:59;;;;;;;0.95;0.60;;;;;;;;;;5040133;28;20056;-61
2023/12/13 05:13:27;;;;;;;0.50;0.50;;;;;;;;;;5041372;28;20064;-59
2023/12/13 05:15:57;;;;;;;0.40;0.30;;;;;;;;;;5047012;28;20045;-60
2023/12/13 05:18:25;;;;;;;2.42;0.85;;;;;;;;;;5046536;28;20114;-59
2023/12/13 05:20:54;;;;;;;1.65;0.75;;;;;;;;;;5042199;28;20112;-60
2023/12/13 05:23:22;;;;;;;2.03;0.90;;;;;;;;;;5043441;28;20052;-63
2023/12/13 05:25:51;;;;;;;3.20;0.75;;;;;;;;;;5043470;28;20136;-61
2023/12/13 05:28:19;;;;;;;2.00;0.65;;;;;;;;;;5045878;28;20141;-61
2023/12/13 05:30:48;;;;;;;1.33;0.70;;;;;;;;;;5044546;28;20514;-60
2023/12/13 05:33:18;;;;;;;1.52;0.60;;;;;;;;;;5044131;28;20052;-61
2023/12/13 05:35:46;;;;;;;1.05;0.65;;;;;;;;;;5045689;28;20045;-60
2023/12/13 05:38:15;;;;;;;1.40;0.73;;;;;;;;;;5047541;28;20580;-60
2023/12/13 05:40:43;;;;;;;1.58;0.43;;;;;;;;;;5047732;28;20494;-60
2023/12/13 05:43:12;;;;;;;2.05;0.70;;;;;;;;;;5048349;28;20045;-64
2023/12/13 05:45:40;;;;;;;1.77;0.52;;;;;;;;;;5046162;28;20657;-59
2023/12/13 05:48:09;;;;;;;0.40;0.40;;;;;;;;;;5047835;28;20551;-60
2023/12/13 05:50:38;;;;;;;0.45;0.45;;;;;;;;;;5044136;28;20136;-62
2023/12/13 05:53:07;;;;;;;1.05;0.50;;;;;;;;;;5046025;28;20095;-59
2023/12/13 05:55:35;;;;;;;0.55;0.40;;;;;;;;;;5043876;28;20087;-59
2023/12/13 05:58:04;;;;;;;0.65;0.40;;;;;;;;;;5042226;28;20438;-65
2023/12/13 06:00:34;;;;;;;0.60;0.60;;;;;;;;;;5045145;28;20050;-61
2023/12/13 06:03:03;;;;;;;0.93;0.60;;;;;;;;;;5046538;28;20525;-61
2023/12/13 06:05:31;;;;;;;0.40;0.40;;;;;;;;;;5049305;28;20072;-60
2023/12/13 06:08:01;;;;;;;1.58;0.40;;;;;;;;;;5045706;28;20132;-60
2023/12/13 06:10:30;;;;;;;0.50;0.40;;;;;;;;;;5049769;28;20132;-60
2023/12/13 06:12:58;;;;;;;0.95;0.50;;;;;;;;;;5044485;28;20469;-60
2023/12/13 06:15:27;;;;;;;0.47;0.47;;;;;;;;;;5042721;28;20175;-60
2023/12/13 06:17:55;;;;;;;1.65;0.50;;;;;;;;;;5049711;28;20107;-60
2023/12/13 06:20:23;;;;;;;0.70;0.55;;;;;;;;;;5044133;28;20501;-59
2023/12/13 06:22:52;;;;;;;0.73;0.60;;;;;;;;;;5041773;28;20098;-60
2023/12/13 06:25:22;;;;;;;0.40;0.40;;;;;;;;;;5044550;28;20115;-60
2023/12/13 06:27:50;;;;;;;0.60;0.60;;;;;;;;;;5045646;28;20123;-63
2023/12/13 06:30:18;;;;;;;0.40;0.40;;;;;;;;;;5039568;28;20041;-60
2023/12/13 06:32:47;;;;;;;0.43;0.43;;;;;;;;;;5043223;28;20124;-61
2023/12/13 06:35:16;;;;;;;0.80;0.50;;;;;;;;;;5048742;28;20041;-61
2023/12/13 06:37:44;;;;;;;1.60;0.90;;;;;;;;;;5041626;28;20530;-60
2023/12/13 06:40:14;;;;;;;0.47;0.47;;;;;;;;;;5046311;28;20495;-61
2023/12/13 06:42:44;;;;;;;1.40;0.55;;;;;;;;;;5048230;28;20045;-61
2023/12/13 06:45:12;;;;;;;0.73;0.73;;;;;;;;;;5046990;28;20523;-61
2023/12/13 06:47:41;;;;;;;1.25;0.73;;;;;;;;;;5040623;28;20052;-60
2023/12/13 06:50:10;;;;;;;0.43;0.43;;;;;;;;;;5048095;28;20052;-60
2023/12/13 06:52:39;;;;;;;2.20;0.85;;;;;;;;;;5046642;28;20562;-61
2023/12/13 06:55:07;;;;;;;0.63;0.60;;;;;;;;;;5046919;28;20049;-59
2023/12/13 06:57:36;;;;;;;0.50;0.50;;;;;;;;;;5047344;28;20110;-59
2023/12/13 07:00:08;;;;;;;0.63;0.45;;;;;;;;;;5050052;28;20494;-60
2023/12/13 07:02:37;;;;;;;0.50;0.50;;;;;;;;;;5046584;28;20073;-63
2023/12/13 07:05:07;;;;;;;1.40;0.63;;;;;;;;;;5047760;28;20053;-60
2023/12/13 07:07:35;;;;;;;0.60;0.60;;;;;;;;;;5048927;28;20081;-59
2023/12/13 07:10:04;;;;;;;0.77;0.60;;;;;;;;;;5042546;28;20055;-60
2023/12/13 07:12:33;;;;;;;0.77;0.60;;;;;;;;;;5045528;28;20071;-62
2023/12/13 07:15:03;;;;;;;1.23;0.80;;;;;;;;;;5048766;28;20041;-60
2023/12/13 07:17:33;;;;;;;0.47;0.47;;;;;;;;;;5027110;28;20049;-61
2023/12/13 07:20:04;;;;;;;1.67;0.90;;;;;;;;;;5048687;28;20099;-60
2023/12/13 07:22:33;;;;;;;2.90;0.77;;;;;;;;;;5047886;28;20044;-62
2023/12/13 07:25:02;;;;;;;1.27;0.85;;;;;;;;;;5047591;28;20041;-60
2023/12/13 07:27:30;;;;;;;1.05;0.60;;;;;;;;;;5045374;28;20294;-63
2023/12/13 07:29:59;;;;;;;2.33;0.80;;;;;;;;;;5044714;28;20053;-62
2023/12/13 07:32:27;;;;;;;0.80;0.60;;;;;;;;;;5046052;28;20049;-64
2023/12/13 07:34:57;;;;;;;0.80;0.60;;;;;;;;;;5048856;28;20053;-60
2023/12/13 07:37:26;;;;;;;0.75;0.65;;;;;;;;;;5044856;28;20056;-63
2023/12/13 07:39:54;;;;;;;0.68;0.68;;;;;;;;;;5048294;28;20429;-60
2023/12/13 07:42:22;;;;;;;0.65;0.65;;;;;;;;;;5042978;28;20052;-62
2023/12/13 07:44:51;;;;;;;1.77;0.60;;;;;;;;;;5041660;28;20525;-62
2023/12/13 07:47:19;;;;;;;1.73;0.60;;;;;;;;;;5047901;28;20128;-60
2023/12/13 07:49:48;;;;;;;1.50;0.85;;;;;;;;;;5049229;28;20049;-60
2023/12/13 07:52:18;;;;;;;1.08;0.70;;;;;;;;;;5046115;28;20049;-62
2023/12/13 07:54:48;;;;;;;1.25;0.70;;;;;;;;;;5043809;28;20078;-60
2023/12/13 07:57:16;;;;;;;1.08;0.80;;;;;;;;;;5044781;28;20494;-58
2023/12/13 07:59:45;;;;;;;0.50;0.50;;;;;;;;;;5046606;28;20577;-58
2023/12/13 08:02:14;;;;;;;0.70;0.70;;;;;;;;;;5044885;28;20120;-58
2023/12/13 08:04:41;;;;;;;0.80;0.50;;;;;;;;;;5045913;28;20115;-58
2023/12/13 08:07:09;;;;;;;0.50;0.50;;;;;;;;;;5046119;28;20041;-59
2023/12/13 08:09:40;;;;;;;1.67;0.90;;;;;;;;;;5043901;28;20053;-61
2023/12/13 08:12:08;;;;;;;1.70;0.82;;;;;;;;;;5041804;28;20045;-59
2023/12/13 08:14:38;;;;;;;2.65;0.68;;;;;;;;;;5045424;28;20088;-60
2023/12/13 08:17:08;;;;;;;0.82;0.70;;;;;;;;;;5046217;28;20053;-60
2023/12/13 08:19:37;;;;;;;2.47;0.85;;;;;;;;;;5041392;28;20049;-61
2023/12/13 08:22:05;;;;;;;1.25;0.60;;;;;;;;;;5042423;28;20498;-60
2023/12/13 08:24:34;;;;;;;0.63;0.63;;;;;;;;;;5046399;28;20053;-59
2023/12/13 08:27:05;;;;;;;0.55;0.55;;;;;;;;;;5043442;28;20057;-59
2023/12/13 08:29:33;;;;;;;1.38;0.80;;;;;;;;;;5047726;28;20073;-60
2023/12/13 08:32:02;;;;;;;0.60;0.60;;;;;;;;;;5044006;28;20465;-61
2023/12/13 08:34:30;;;;;;;0.85;0.80;;;;;;;;;;5041697;28;20056;-59
2023/12/13 08:36:59;;;;;;;0.60;0.60;;;;;;;;;;5045147;28;20055;-59
2023/12/13 08:39:27;;;;;;;1.98;0.80;;;;;;;;;;5042261;28;20041;-60
2023/12/13 08:41:55;;;;;;;1.33;0.80;;;;;;;;;;5044979;28;20080;-60
2023/12/13 08:44:25;;;;;;;1.02;0.77;;;;;;;;;;5044104;28;20049;-63
2023/12/13 08:46:54;;;;;;;1.20;0.70;;;;;;;;;;5046562;28;20053;-60
2023/12/13 08:49:22;;;;;;;0.98;0.80;;;;;;;;;;5040219;28;20060;-61
2023/12/13 08:51:51;;;;;;;0.80;0.80;;;;;;;;;;5042306;28;20073;-59
2023/12/13 08:54:19;;;;;;;2.47;1.00;;;;;;;;;;5037221;28;20454;-62
2023/12/13 08:56:47;;;;;;;1.63;0.80;;;;;;;;;;5040147;28;20048;-61
2023/12/13 08:59:16;;;;;;;1.17;0.90;;;;;;;;;;5040844;28;20534;-60
2023/12/13 09:01:46;;;;;;;0.82;0.70;;;;;;;;;;5042794;28;20052;-61
2023/12/13 09:04:14;;;;;;;1.73;0.90;;;;;;;;;;5041674;28;20497;-60
2023/12/13 09:06:43;;;;;;;1.80;0.60;;;;;;;;;;5040406;28;20049;-66
2023/12/13 09:09:11;;;;;;;1.95;0.80;;;;;;;;;;5046095;28;20059;-65
2023/12/13 09:11:40;;;;;;;1.40;0.98;;;;;;;;;;5041134;28;20045;-61
2023/12/13 09:14:09;;;;;;;2.63;0.90;;;;;;;;;;5050641;28;20053;-62
2023/12/13 09:16:38;;;;;;;2.50;1.02;;;;;;;;;;5050127;28;20084;-60
2023/12/13 09:19:08;;;;;;;2.65;1.05;;;;;;;;;;5050539;28;20055;-61
2023/12/13 09:21:37;;;;;;;1.00;0.90;;;;;;;;;;5045925;28;20044;-62
2023/12/13 09:24:05;;;;;;;1.52;1.00;;;;;;;;;;5052428;28;20049;-60
2023/12/13 09:26:35;;;;;;;0.88;0.80;;;;;;;;;;5050580;28;20085;-60
2023/12/13 09:29:04;;;;;;;1.58;1.00;;;;;;;;;;5053932;28;20068;-60
2023/12/13 09:31:32;;;;;;;1.95;0.80;;;;;;;;;;5050742;28;20498;-61
2023/12/13 09:34:01;;;;;;;1.80;1.05;;;;;;;;;;5051933;28;20056;-63
2023/12/13 09:36:31;;;;;;;2.75;0.90;;;;;;;;;;5051802;28;20044;-59
2023/12/13 09:39:00;;;;;;;2.25;1.17;;;;;;;;;;5054548;28;20122;-62
2023/12/13 09:41:32;;;;;;;2.50;1.02;;;;;;;;;;5051366;28;20099;-60
2023/12/13 09:44:01;;;;;;;1.65;0.88;;;;;;;;;;5052707;28;20052;-61
2023/12/13 09:46:29;;;;;;;1.52;1.00;;;;;;;;;;5049635;28;20063;-60
2023/12/13 09:48:58;;;;;;;2.05;1.35;;;;;;;;;;5051911;28;20053;-59
2023/12/13 09:51:27;;;;;;;0.80;0.80;;;;;;;;;;5046217;28;20055;-59
2023/12/13 09:53:58;;;;;;;1.25;1.15;;;;;;;;;;5049760;28;20061;-58
2023/12/13 09:56:26;;;;;;;1.63;1.10;;;;;;;;;;5046885;28;20048;-60
2023/12/13 09:58:55;;;;;;;1.20;0.88;;;;;;;;;;5048059;28;20658;-60
2023/12/13 10:01:23;;;;;;;2.55;1.27;;;;;;;;;;5048936;28;20494;-59
2023/12/13 10:03:52;;;;;;;1.40;0.95;;;;;;;;;;5054431;28;20060;-60
2023/12/13 10:06:20;;;;;;;1.95;1.00;;;;;;;;;;5044735;28;20053;-62
2023/12/13 10:08:54;;;;;;;2.17;0.80;;;;;;;;;;5050704;28;20063;-60
2023/12/13 10:11:24;;;;;;;2.80;2.40;;;;;;;;;;5047314;28;20060;-61
2023/12/13 10:13:53;;;;;;;2.42;0.80;;;;;;;;;;5052285;28;20295;-60
2023/12/13 10:16:21;;;;;;;1.58;0.90;;;;;;;;;;5048882;28;20053;-64
2023/12/13 10:18:50;;;;;;;1.42;0.77;;;;;;;;;;5048169;28;20049;-61
2023/12/13 10:21:19;;;;;;;1.13;1.02;;;;;;;;;;5049696;28;20067;-60
2023/12/13 10:23:47;;;;;;;1.17;0.95;;;;;;;;;;5049261;28;20064;-60
2023/12/13 10:26:16;;;;;;;1.85;0.90;;;;;;;;;;5043031;28;20135;-61
2023/12/13 10:28:46;;;;;;;2.40;0.93;;;;;;;;;;5045131;28;20099;-59
2023/12/13 10:31:14;;;;;;;1.60;1.10;;;;;;;;;;5047119;28;20145;-59
2023/12/13 10:33:43;;;;;;;2.50;1.15;;;;;;;;;;5047187;28;20065;-60
2023/12/13 10:36:12;;;;;;;2.50;0.65;;;;;;;;;;5043748;28;20482;-61
2023/12/13 10:38:40;;;;;;;1.92;0.73;;;;;;;;;;5046764;28;20091;-59
2023/12/13 10:41:10;;;;;;;1.17;1.08;;;;;;;;;;5045310;28;20102;-59
2023/12/13 10:43:40;;;;;;;3.25;1.08;;;;;;;;;;5046210;28;20452;-60
2023/12/13 10:46:12;;;;;;;1.70;0.90;;;;;;;;;;5045836;28;20049;-61
2023/12/13 10:48:41;;;;;;;5.65;0.90;;;;;;;;;;5045805;28;20379;-59
2023/12/13 10:51:11;;;;;;;1.60;0.90;;;;;;;;;;5045613;28;20060;-59
2023/12/13 10:53:41;;;;;;;3.65;0.70;;;;;;;;;;5049465;28;20049;-59
2023/12/13 10:56:10;;;;;;;1.60;0.70;;;;;;;;;;5048462;28;20102;-60
2023/12/13 10:58:39;;;;;;;6.53;0.85;;;;;;;;;;5045819;28;20134;-60
2023/12/13 11:01:08;;;;;;;0.95;0.65;;;;;;;;;;5045544;28;20048;-59
2023/12/13 11:03:41;;;;;;;1.25;0.70;;;;;;;;;;5045009;28;20589;-59
2023/12/13 11:06:13;;;;;;;0.60;0.60;;;;;;;;;;5047952;28;20048;-64
2023/12/13 11:08:43;;;;;;;1.85;0.57;;;;;;;;;;5045476;28;20102;-61
2023/12/13 11:11:13;;;;;;;1.48;0.75;;;;;;;;;;5047024;28;20048;-58
2023/12/13 11:13:47;;;;;;;0.43;0.40;;;;;;;;;;5046791;28;20051;-61
2023/12/13 11:16:19;;;;;;;1.02;0.68;;;;;;;;;;5047980;28;20052;-59
2023/12/13 11:18:50;;;;;;;1.27;0.63;;;;;;;;;;5045687;28;20049;-60
2023/12/13 11:21:24;;;;;;;1.20;0.60;;;;;;;;;;5047082;28;20053;-61
2023/12/13 11:23:54;;;;;;;0.50;0.50;;;;;;;;;;5048531;28;20576;-59
2023/12/13 11:26:23;;;;;;;1.65;0.57;;;;;;;;;;5043687;28;20111;-61
2023/12/13 11:28:52;;;;;;;0.93;0.70;;;;;;;;;;5045685;28;20045;-63
2023/12/13 11:31:22;;;;;;;1.58;0.70;;;;;;;;;;5043963;28;20072;-61
2023/12/13 11:33:54;;;;;;;1.00;0.70;;;;;;;;;;5044092;28;20056;-61
2023/12/13 11:36:23;;;;;;;0.88;0.60;;;;;;;;;;5039917;28;20472;-61
2023/12/13 11:38:52;;;;;;;0.80;0.50;;;;;;;;;;5043703;28;20102;-61
2023/12/13 11:41:21;;;;;;;0.95;0.60;;;;;;;;;;5048246;28;20154;-59
2023/12/13 11:43:49;;;;;;;0.70;0.57;;;;;;;;;;5045574;28;20104;-59
2023/12/13 11:46:18;;;;;;;1.95;0.68;;;;;;;;;;5048240;28;20057;-61
2023/12/13 11:48:46;;;;;;;2.20;0.60;;;;;;;;;;5043395;28;20494;-63
2023/12/13 11:51:17;;;;;;;2.55;0.70;;;;;;;;;;5043194;28;20430;-60
2023/12/13 11:53:46;;;;;;;0.70;0.70;;;;;;;;;;5039528;28;20521;-61
2023/12/13 11:56:16;;;;;;;0.55;0.52;;;;;;;;;;5046456;28;20053;-60
2023/12/13 11:58:45;;;;;;;1.00;0.70;;;;;;;;;;5040564;28;20040;-58
2023/12/13 12:01:15;;;;;;;0.60;0.60;;;;;;;;;;5039301;28;20037;-61
2023/12/13 12:03:44;;;;;;;1.23;0.80;;;;;;;;;;5046915;28;20486;-59
2023/12/13 12:06:18;;;;;;;2.25;0.93;;;;;;;;;;5039218;28;20607;-59
2023/12/13 12:08:47;;;;;;;1.08;0.60;;;;;;;;;;5041157;28;20049;-64
2023/12/13 12:11:15;;;;;;;3.55;0.68;;;;;;;;;;5044056;28;20049;-60
2023/12/13 12:13:45;;;;;;;1.02;0.60;;;;;;;;;;5045358;28;20487;-61
2023/12/13 12:16:13;;;;;;;2.42;0.77;;;;;;;;;;5045371;28;20057;-59
2023/12/13 12:18:42;;;;;;;0.98;0.70;;;;;;;;;;5040992;28;20051;-61
2023/12/13 12:21:12;;;;;;;0.98;0.50;;;;;;;;;;5044571;28;20073;-60
2023/12/13 12:23:42;;;;;;;1.65;0.60;;;;;;;;;;5045300;28;20076;-60
2023/12/13 12:26:11;;;;;;;2.15;0.50;;;;;;;;;;5044784;28;21649;-60
2023/12/13 12:28:41;;;;;;;0.60;0.60;;;;;;;;;;5045515;28;20059;-59
2023/12/13 12:31:09;;;;;;;0.90;0.50;;;;;;;;;;5044927;28;20477;-59
2023/12/13 12:33:44;;;;;;;0.50;0.50;;;;;;;;;;5046896;28;20095;-61
2023/12/13 12:36:13;;;;;;;0.73;0.60;;;;;;;;;;5045133;28;20087;-59
2023/12/13 12:38:43;;;;;;;1.00;0.50;;;;;;;;;;5044428;28;20470;-59
2023/12/13 12:41:11;;;;;;;1.38;0.55;;;;;;;;;;5044042;28;20360;-59
2023/12/13 12:43:39;;;;;;;1.45;0.80;;;;;;;;;;5042422;28;20111;-59
2023/12/13 12:46:08;;;;;;;1.27;0.50;;;;;;;;;;5042084;28;20076;-60
2023/12/13 12:48:37;;;;;;;0.82;0.50;;;;;;;;;;5044006;28;20048;-59
2023/12/13 12:51:06;;;;;;;1.13;0.70;;;;;;;;;;5045082;28;20049;-59
2023/12/13 12:53:34;;;;;;;1.13;0.60;;;;;;;;;;5047357;28;20103;-59
2023/12/13 12:56:04;;;;;;;1.17;0.47;;;;;;;;;;5046310;28;20049;-63
2023/12/13 12:58:37;;;;;;;1.10;0.47;;;;;;;;;;5043294;28;20106;-60
2023/12/13 13:01:05;;;;;;;0.43;0.43;;;;;;;;;;5044631;28;20047;-59
2023/12/13 13:03:34;;;;;;;0.88;0.50;;;;;;;;;;5046746;28;20052;-60
2023/12/13 13:06:04;;;;;;;2.15;1.40;;;;;;;;;;5045227;28;20056;-62
2023/12/13 13:08:33;;;;;;;1.35;0.60;;;;;;;;;;5044155;28;20061;-59
2023/12/13 13:11:03;;;;;;;0.57;0.57;;;;;;;;;;5047208;28;20462;-64
2023/12/13 13:13:32;;;;;;;1.40;0.70;;;;;;;;;;5045857;28;20687;-59
2023/12/13 13:16:00;;;;;;;2.85;0.77;;;;;;;;;;5043444;28;20045;-63
2023/12/13 13:18:28;;;;;;;0.50;0.40;;;;;;;;;;5046040;28;20053;-60
2023/12/13 13:20:57;;;;;;;2.38;0.60;;;;;;;;;;5044427;28;20107;-60
2023/12/13 13:23:26;;;;;;;0.95;0.68;;;;;;;;;;5043401;28;20045;-60
2023/12/13 13:25:54;;;;;;;1.33;0.75;;;;;;;;;;5041529;28;20063;-63
2023/12/13 13:28:24;;;;;;;1.17;0.70;;;;;;;;;;5044440;28;20049;-60
2023/12/13 13:30:53;;;;;;;2.30;0.55;;;;;;;;;;5045060;28;20049;-60
2023/12/13 13:33:21;;;;;;;1.00;0.60;;;;;;;;;;5043364;28;20041;-59
2023/12/13 13:35:50;;;;;;;2.05;1.00;;;;;;;;;;5041750;28;20470;-62
2023/12/13 13:38:19;;;;;;;0.88;0.80;;;;;;;;;;5042205;28;20064;-63
2023/12/13 13:40:47;;;;;;;0.88;0.50;;;;;;;;;;5042752;28;20049;-61
2023/12/13 13:43:16;;;;;;;1.88;0.68;;;;;;;;;;5040094;28;20060;-62
2023/12/13 13:45:45;;;;;;;1.02;0.60;;;;;;;;;;5042092;28;20049;-62
2023/12/13 13:48:16;;;;;;;1.30;0.50;;;;;;;;;;5043282;28;20046;-62
2023/12/13 13:50:45;;;;;;;1.65;0.73;;;;;;;;;;5040218;28;20122;-60
2023/12/13 13:53:13;;;;;;;0.85;0.60;;;;;;;;;;5041772;28;20058;-59
2023/12/13 13:55:42;;;;;;;1.02;0.73;;;;;;;;;;5044891;28;20251;-59
2023/12/13 13:58:10;;;;;;;0.70;0.70;;;;;;;;;;5047159;28;20049;-59
2023/12/13 14:00:39;;;;;;;4.30;0.80;;;;;;;;;;5043673;28;20107;-63
2023/12/13 14:03:09;;;;;;;0.70;0.70;;;;;;;;;;5046857;28;20502;-59
2023/12/13 14:05:37;;;;;;;1.08;0.40;;;;;;;;;;5046990;28;20091;-64
2023/12/13 14:08:09;;;;;;;2.75;0.98;;;;;;;;;;5048493;28;20049;-59
2023/12/13 14:10:37;;;;;;;1.70;0.70;;;;;;;;;;5048257;28;20094;-60
2023/12/13 14:13:06;;;;;;;3.22;0.85;;;;;;;;;;5046859;28;20426;-61
2023/12/13 14:15:35;;;;;;;0.98;0.70;;;;;;;;;;5046980;28;20045;-59
2023/12/13 14:18:04;;;;;;;2.15;1.00;;;;;;;;;;5044855;28;20053;-60
2023/12/13 14:20:37;;;;;;;1.50;0.70;;;;;;;;;;5046966;28;20051;-58
2023/12/13 14:23:06;;;;;;;1.33;0.60;;;;;;;;;;5043826;28;20098;-60
2023/12/13 14:25:35;;;;;;;1.40;0.77;;;;;;;;;;5042733;28;20553;-61
2023/12/13 14:28:03;;;;;;;1.77;0.90;;;;;;;;;;5045838;28;20049;-62
2023/12/13 14:30:32;;;;;;;3.47;0.90;;;;;;;;;;5046779;28;20048;-59
2023/12/13 14:33:00;;;;;;;1.88;0.70;;;;;;;;;;5043788;28;20127;-59
2023/12/13 14:35:30;;;;;;;0.90;0.75;;;;;;;;;;5047349;28;20040;-59
2023/12/13 14:37:59;;;;;;;0.50;0.50;;;;;;;;;;5041311;28;20569;-61
2023/12/13 14:40:28;;;;;;;0.82;0.63;;;;;;;;;;5048578;28;20170;-62
2023/12/13 14:42:57;;;;;;;1.95;0.80;;;;;;;;;;5045080;28;20081;-67
2023/12/13 14:45:26;;;;;;;2.15;0.88;;;;;;;;;;5013633;28;20699;-59
2023/12/13 14:47:54;;;;;;;2.08;0.88;;;;;;;;;;5042347;28;20041;-61
2023/12/13 14:50:23;;;;;;;1.92;0.70;;;;;;;;;;5044724;28;20413;-60
2023/12/13 14:52:51;;;;;;;0.63;0.60;;;;;;;;;;5043946;28;20068;-60